カーナーク/チューレ空軍基地 の空港の天気 - METARとTAF

チューレ空軍基地 ( BGTL / THU ) - グリーンランド カーナーク
飛行場実況気象(Metar)
観測時間10/21 11:56 ADT (10/21 14:56 UTC)
風向・風速東 2m/s
視程10km以上
天気現象
全天の8割程度の雲 雲底高度 2290m
全天を覆う雲 雲底高度 3050m
気温-5.9℃
湿度99%
気圧1002.1hPa
METARBGTL 211456Z AUTO 09004KT 9999 BKN075 OVC100 M06/M06 A2963 RMK AO2 SLP021 T10591060 52008 TSNO $
過去の天気等 Google飛行場航空写真 Wunderground天気予報

過去48時間のMETAR

飛行場予報(TAF)
データがありません